createdAt,value
2019-04-30T00:00:06.631Z,1023.87
2019-04-30T00:01:02.608Z,1023.87
2019-04-30T00:02:01.769Z,1023.75
2019-04-30T00:03:02.061Z,1023.75
2019-04-30T00:04:02.342Z,1023.75
2019-04-30T00:05:02.562Z,1023.75
2019-04-30T00:06:01.704Z,1023.66
2019-04-30T00:07:01.992Z,1023.66
2019-04-30T00:08:02.162Z,1023.66
2019-04-30T00:09:02.369Z,1023.66
2019-04-30T00:10:02.630Z,1023.78
2019-04-30T00:11:01.836Z,1023.78
2019-04-30T00:12:02.061Z,1023.78
2019-04-30T00:13:02.308Z,1023.78
2019-04-30T00:14:02.501Z,1023.75
2019-04-30T00:15:01.829Z,1023.75
2019-04-30T00:16:02.092Z,1023.75
2019-04-30T00:17:02.349Z,1023.75
2019-04-30T00:18:02.486Z,1023.79
2019-04-30T00:19:01.726Z,1023.79
2019-04-30T00:20:01.870Z,1023.79
2019-04-30T00:21:02.137Z,1023.79
2019-04-30T00:22:02.383Z,1023.79
2019-04-30T00:23:02.529Z,1023.79
2019-04-30T00:24:10.475Z,1023.79
2019-04-30T00:25:02.078Z,1023.79
2019-04-30T00:26:10.614Z,1023.86
2019-04-30T00:27:02.576Z,1023.86
2019-04-30T00:28:08.936Z,1023.86
2019-04-30T00:29:02.016Z,1023.86
2019-04-30T00:30:09.202Z,1023.64
2019-04-30T00:31:02.491Z,1023.64
2019-04-30T00:32:07.899Z,1023.64
2019-04-30T00:33:01.888Z,1023.64
2019-04-30T00:34:02.245Z,1023.63
2019-04-30T00:35:02.371Z,1023.63
2019-04-30T00:36:02.609Z,1023.63
2019-04-30T00:37:01.829Z,1023.63
2019-04-30T00:38:02.034Z,1023.56
2019-04-30T00:39:02.338Z,1023.56
2019-04-30T00:40:02.509Z,1023.56
2019-04-30T00:41:09.968Z,1023.56
2019-04-30T00:42:02.024Z,1023.62
2019-04-30T00:43:09.204Z,1023.62
2019-04-30T00:44:02.345Z,1023.62
2019-04-30T00:45:10.157Z,1023.62
2019-04-30T00:46:01.766Z,1023.65
2019-04-30T00:47:08.439Z,1023.65
2019-04-30T00:48:02.239Z,1023.65
2019-04-30T00:49:16.138Z,1023.65
2019-04-30T00:50:01.794Z,1023.44
2019-04-30T00:51:02.017Z,1023.44
2019-04-30T00:52:02.235Z,1023.44
2019-04-30T00:53:14.296Z,1023.44
2019-04-30T00:54:02.624Z,1023.54
2019-04-30T00:55:09.284Z,1023.54
2019-04-30T00:56:02.107Z,1023.54
2019-04-30T00:57:07.923Z,1023.54
2019-04-30T00:58:02.551Z,1023.57
2019-04-30T00:59:10.438Z,1023.57
2019-04-30T01:00:07.830Z,1023.57
2019-04-30T01:01:08.310Z,1023.47
2019-04-30T01:02:01.942Z,1023.47
2019-04-30T01:03:09.571Z,1023.47
2019-04-30T01:04:02.393Z,1023.47
2019-04-30T01:05:09.080Z,1023.42
2019-04-30T01:06:01.884Z,1023.42
2019-04-30T01:07:08.809Z,1023.42
2019-04-30T01:08:02.332Z,1023.42
2019-04-30T01:09:08.600Z,1023.48
2019-04-30T01:10:01.795Z,1023.48
2019-04-30T01:11:09.754Z,1023.48
2019-04-30T01:12:02.325Z,1023.48
2019-04-30T01:13:12.183Z,1023.37
2019-04-30T01:14:02.455Z,1023.37
2019-04-30T01:15:13.200Z,1023.37
2019-04-30T01:16:01.845Z,1023.37
2019-04-30T01:17:12.064Z,1023.32
2019-04-30T01:18:06.838Z,1023.32
2019-04-30T01:19:21.269Z,1023.32
2019-04-30T01:20:01.767Z,1023.32
2019-04-30T01:21:10.093Z,1023.32
2019-04-30T01:22:02.297Z,1023.32
2019-04-30T01:23:10.286Z,1023.32
2019-04-30T01:24:01.672Z,1023.32
2019-04-30T01:25:12.284Z,1023.28
2019-04-30T01:26:02.068Z,1023.28
2019-04-30T01:27:10.682Z,1023.28
2019-04-30T01:28:02.543Z,1023.28
2019-04-30T01:29:02.552Z,1023.24
2019-04-30T01:30:02.015Z,1023.24
2019-04-30T01:31:02.339Z,1023.24
2019-04-30T01:32:02.488Z,1023.24
2019-04-30T01:33:01.655Z,1023.11
2019-04-30T01:34:13.640Z,1023.11
2019-04-30T01:35:02.200Z,1023.11
2019-04-30T01:36:13.120Z,1023.11
2019-04-30T01:37:02.592Z,1023.27
2019-04-30T01:38:12.375Z,1023.27
2019-04-30T01:39:02.034Z,1023.27
2019-04-30T01:40:13.423Z,1023.27
2019-04-30T01:41:02.531Z,1023.24
2019-04-30T01:42:10.041Z,1023.24
2019-04-30T01:43:02.041Z,1023.24
2019-04-30T01:44:11.717Z,1023.24
2019-04-30T01:45:02.472Z,1023.19
2019-04-30T01:46:13.966Z,1023.19
2019-04-30T01:47:01.929Z,1023.19
2019-04-30T01:48:12.924Z,1023.19
2019-04-30T01:49:02.408Z,1023.15
2019-04-30T01:50:05.342Z,1023.15
2019-04-30T01:51:01.966Z,1023.15
2019-04-30T01:52:01.846Z,1023.15
2019-04-30T01:53:11.973Z,1023.2
2019-04-30T01:54:02.232Z,1023.2
2019-04-30T01:55:02.538Z,1023.2
2019-04-30T01:56:01.762Z,1023.2
2019-04-30T01:57:01.884Z,1023
2019-04-30T01:58:02.114Z,1023
2019-04-30T01:59:02.328Z,1023
2019-04-30T02:00:05.501Z,1023
2019-04-30T02:01:02.419Z,1023.02
2019-04-30T02:02:02.674Z,1023.02
2019-04-30T02:03:01.918Z,1023.02
2019-04-30T02:04:02.099Z,1023.02
2019-04-30T02:05:02.392Z,1023.04
2019-04-30T02:06:02.602Z,1023.04
2019-04-30T02:07:01.838Z,1023.04
2019-04-30T02:08:02.108Z,1023.04
2019-04-30T02:09:02.399Z,1023.09
2019-04-30T02:10:02.567Z,1023.09
2019-04-30T02:11:01.826Z,1023.09
2019-04-30T02:12:02.093Z,1023.09
2019-04-30T02:13:02.255Z,1023.07
2019-04-30T02:14:02.547Z,1023.07
2019-04-30T02:15:02.453Z,1023.07
2019-04-30T02:16:02.056Z,1023.07
2019-04-30T02:17:02.296Z,1023.17
2019-04-30T02:18:02.477Z,1023.17
2019-04-30T02:19:01.766Z,1023.17
2019-04-30T02:20:01.796Z,1023.17
2019-04-30T02:21:01.986Z,1022.95
2019-04-30T02:22:02.319Z,1022.95
2019-04-30T02:23:02.562Z,1022.95
2019-04-30T02:24:01.796Z,1022.95
2019-04-30T02:25:02.062Z,1022.89
2019-04-30T02:26:02.272Z,1022.89
2019-04-30T02:27:02.495Z,1022.89
2019-04-30T02:28:01.783Z,1022.89
2019-04-30T02:29:01.959Z,1022.95
2019-04-30T02:30:03.211Z,1022.95
2019-04-30T02:31:01.878Z,1022.95
2019-04-30T02:32:02.103Z,1022.95
2019-04-30T02:33:02.565Z,1022.87
2019-04-30T02:34:02.552Z,1022.87
2019-04-30T02:35:01.853Z,1022.87
2019-04-30T02:36:04.325Z,1022.87
2019-04-30T02:37:02.236Z,1023.04
2019-04-30T02:38:02.395Z,1023.04
2019-04-30T02:39:03.143Z,1023.04
2019-04-30T02:40:01.900Z,1022.96
2019-04-30T02:41:02.149Z,1022.96
2019-04-30T02:42:01.912Z,1022.96
2019-04-30T02:43:02.310Z,1022.96
2019-04-30T02:44:02.296Z,1023.02
2019-04-30T02:45:04.467Z,1023.02
2019-04-30T02:46:01.813Z,1023.02
2019-04-30T02:47:02.107Z,1023.02
2019-04-30T02:48:02.336Z,1022.86
2019-04-30T02:49:02.067Z,1022.86
2019-04-30T02:50:22.263Z,1022.86
2019-04-30T02:51:02.601Z,1022.86
2019-04-30T02:52:01.934Z,1023
2019-04-30T02:53:03.172Z,1023
2019-04-30T02:54:02.350Z,1023
2019-04-30T02:55:02.568Z,1023
2019-04-30T02:56:03.082Z,1022.94
2019-04-30T02:57:02.048Z,1022.94
2019-04-30T02:58:02.181Z,1022.94
2019-04-30T02:59:04.399Z,1022.94
2019-04-30T03:00:01.880Z,1022.93
2019-04-30T03:01:01.921Z,1022.93
2019-04-30T03:02:01.971Z,1022.93
2019-04-30T03:03:02.154Z,1022.93
2019-04-30T03:04:02.307Z,1022.76
2019-04-30T03:05:02.278Z,1022.76
2019-04-30T03:06:02.274Z,1022.76
2019-04-30T03:07:02.302Z,1022.76
2019-04-30T03:08:02.493Z,1022.87
2019-04-30T03:09:01.767Z,1022.87
2019-04-30T03:10:01.992Z,1022.87
2019-04-30T03:11:02.190Z,1022.87
2019-04-30T03:12:02.495Z,1022.87
2019-04-30T03:13:01.646Z,1022.87
2019-04-30T03:14:01.900Z,1022.87
2019-04-30T03:15:02.428Z,1022.87
2019-04-30T03:16:02.419Z,1022.82
2019-04-30T03:17:02.707Z,1022.82
2019-04-30T03:18:02.013Z,1022.82
2019-04-30T03:19:02.072Z,1022.82
2019-04-30T03:20:03.966Z,1022.79
2019-04-30T03:21:02.523Z,1022.79
2019-04-30T03:22:01.841Z,1022.79
2019-04-30T03:23:02.832Z,1022.79
2019-04-30T03:24:02.298Z,1022.78
2019-04-30T03:25:02.569Z,1022.78
2019-04-30T03:26:01.810Z,1022.78
2019-04-30T03:27:02.103Z,1022.78
2019-04-30T03:28:02.213Z,1022.83
2019-04-30T03:29:02.448Z,1022.83
2019-04-30T03:30:02.783Z,1022.83
2019-04-30T03:31:05.229Z,1022.83
2019-04-30T03:32:03.911Z,1022.75
2019-04-30T03:33:03.530Z,1022.75
2019-04-30T03:34:02.667Z,1022.75
2019-04-30T03:35:03.933Z,1022.75
2019-04-30T03:36:03.181Z,1022.79
2019-04-30T03:37:02.673Z,1022.79
2019-04-30T03:38:02.444Z,1022.79
2019-04-30T03:39:02.609Z,1022.79
2019-04-30T03:40:02.064Z,1022.75
2019-04-30T03:41:02.094Z,1022.75
2019-04-30T03:42:02.339Z,1022.75
2019-04-30T03:43:03.591Z,1022.75
2019-04-30T03:44:25.759Z,1022.72
2019-04-30T03:45:02.121Z,1022.72
2019-04-30T03:46:03.335Z,1022.72
2019-04-30T03:47:02.691Z,1022.72
2019-04-30T03:48:01.878Z,1022.67
2019-04-30T03:49:02.015Z,1022.67
2019-04-30T03:50:02.586Z,1022.67
2019-04-30T03:51:02.596Z,1022.67
2019-04-30T03:52:01.825Z,1022.7
2019-04-30T03:53:02.078Z,1022.7
2019-04-30T03:54:02.245Z,1022.7
2019-04-30T03:55:03.376Z,1022.7
2019-04-30T03:56:01.853Z,1022.7
2019-04-30T03:57:01.963Z,1022.7
2019-04-30T03:58:02.152Z,1022.7
2019-04-30T03:59:02.324Z,1022.7
2019-04-30T04:00:05.880Z,1022.77
2019-04-30T04:01:01.755Z,1022.77
2019-04-30T04:02:02.111Z,1022.77
2019-04-30T04:03:02.195Z,1022.77
2019-04-30T04:04:02.402Z,1022.72
2019-04-30T04:05:02.646Z,1022.72
2019-04-30T04:06:01.869Z,1022.72
2019-04-30T04:07:02.184Z,1022.72
2019-04-30T04:08:02.463Z,1022.76
2019-04-30T04:09:02.636Z,1022.76
2019-04-30T04:10:01.930Z,1022.76
2019-04-30T04:11:02.132Z,1022.76
2019-04-30T04:12:02.401Z,1022.72
2019-04-30T04:13:02.578Z,1022.72
2019-04-30T04:14:01.844Z,1022.72
2019-04-30T04:15:04.476Z,1022.72
2019-04-30T04:16:02.300Z,1022.72
2019-04-30T04:17:02.581Z,1022.72
2019-04-30T04:18:01.775Z,1022.72
2019-04-30T04:19:03.365Z,1022.72
2019-04-30T04:20:02.205Z,1022.77
2019-04-30T04:21:16.884Z,1022.77
2019-04-30T04:22:04.562Z,1022.77
2019-04-30T04:23:01.801Z,1022.77
2019-04-30T04:24:02.053Z,1022.77
2019-04-30T04:25:02.404Z,1022.77
2019-04-30T04:26:02.524Z,1022.77
2019-04-30T04:27:01.830Z,1022.7
2019-04-30T04:28:02.045Z,1022.7
2019-04-30T04:29:02.219Z,1022.7
2019-04-30T04:30:02.575Z,1022.7
2019-04-30T04:31:01.725Z,1022.79
2019-04-30T04:32:02.048Z,1022.79
2019-04-30T04:33:02.178Z,1022.79
2019-04-30T04:34:02.395Z,1022.79
2019-04-30T04:35:02.668Z,1022.73
2019-04-30T04:36:01.921Z,1022.73
2019-04-30T04:37:02.142Z,1022.73
2019-04-30T04:38:02.330Z,1022.73
2019-04-30T04:39:02.575Z,1022.75
2019-04-30T04:40:01.845Z,1022.75
2019-04-30T04:41:03.502Z,1022.75
2019-04-30T04:42:02.250Z,1022.75
2019-04-30T04:43:02.477Z,1022.88
2019-04-30T04:44:01.654Z,1022.88
2019-04-30T04:45:01.905Z,1022.88
2019-04-30T04:46:02.178Z,1022.88
2019-04-30T04:47:02.466Z,1022.84
2019-04-30T04:48:02.653Z,1022.84
2019-04-30T04:49:01.859Z,1022.84
2019-04-30T04:50:01.993Z,1022.84
2019-04-30T04:51:02.249Z,1022.86
2019-04-30T04:52:02.445Z,1022.86
2019-04-30T04:53:01.646Z,1022.86
2019-04-30T04:54:03.824Z,1022.86
2019-04-30T04:55:02.121Z,1022.76
2019-04-30T04:56:02.385Z,1022.76
2019-04-30T04:57:21.981Z,1022.76
2019-04-30T04:58:01.972Z,1022.76
2019-04-30T04:59:02.139Z,1023.02
2019-04-30T05:00:10.617Z,1023.02
2019-04-30T05:01:01.683Z,1023.02
2019-04-30T05:02:01.800Z,1023.02
2019-04-30T05:03:02.124Z,1022.87
2019-04-30T05:04:02.249Z,1022.87
2019-04-30T05:05:02.684Z,1022.87
2019-04-30T05:06:03.177Z,1022.87
2019-04-30T05:07:02.079Z,1023.01
2019-04-30T05:08:02.381Z,1023.01
2019-04-30T05:09:02.470Z,1023.01
2019-04-30T05:10:01.770Z,1023.01
2019-04-30T05:11:02.012Z,1022.87
2019-04-30T05:12:02.204Z,1022.87
2019-04-30T05:13:02.559Z,1022.87
2019-04-30T05:14:01.706Z,1022.87
2019-04-30T05:15:02.035Z,1022.98
2019-04-30T05:16:02.257Z,1022.98
2019-04-30T05:17:02.492Z,1022.98
2019-04-30T05:18:01.672Z,1022.98
2019-04-30T05:19:01.849Z,1023.02
2019-04-30T05:20:02.125Z,1023.02
2019-04-30T05:21:02.285Z,1023.02
2019-04-30T05:22:02.583Z,1023.02
2019-04-30T05:23:01.677Z,1022.95
2019-04-30T05:24:01.926Z,1022.95
2019-04-30T05:25:02.363Z,1022.95
2019-04-30T05:26:02.483Z,1022.95
2019-04-30T05:27:01.747Z,1023.05
2019-04-30T05:28:01.902Z,1023.05
2019-04-30T05:29:02.171Z,1023.05
2019-04-30T05:30:02.448Z,1023.05
2019-04-30T05:31:02.628Z,1022.94
2019-04-30T05:32:01.858Z,1022.94
2019-04-30T05:33:02.022Z,1022.94
2019-04-30T05:34:02.186Z,1022.94
2019-04-30T05:35:02.465Z,1022.95
2019-04-30T05:36:01.689Z,1022.95
2019-04-30T05:37:01.911Z,1022.95
2019-04-30T05:38:02.139Z,1022.95
2019-04-30T05:39:02.141Z,1023.05
2019-04-30T05:40:02.408Z,1023.05
2019-04-30T05:41:01.650Z,1023.05
2019-04-30T05:42:01.897Z,1023.05
2019-04-30T05:43:02.068Z,1023.13
2019-04-30T05:44:02.361Z,1023.13
2019-04-30T05:45:02.515Z,1023.13
2019-04-30T05:46:01.698Z,1023.13
2019-04-30T05:47:02.059Z,1023.02
2019-04-30T05:48:02.114Z,1023.02
2019-04-30T05:49:02.352Z,1023.02
2019-04-30T05:50:02.581Z,1023.02
2019-04-30T05:51:01.786Z,1023.09
2019-04-30T05:52:02.084Z,1023.09
2019-04-30T05:53:02.259Z,1023.09
2019-04-30T05:54:02.556Z,1023.09
2019-04-30T05:55:02.488Z,1023.17
2019-04-30T05:56:03.627Z,1023.17
2019-04-30T05:57:01.683Z,1023.17
2019-04-30T05:58:01.986Z,1023.17
2019-04-30T05:59:02.111Z,1023.14
2019-04-30T06:00:04.172Z,1023.14
2019-04-30T06:01:02.546Z,1023.14
2019-04-30T06:02:02.523Z,1023.14
2019-04-30T06:03:01.787Z,1023.24
2019-04-30T06:04:01.920Z,1023.24
2019-04-30T06:05:02.168Z,1023.24
2019-04-30T06:06:02.205Z,1023.24
2019-04-30T06:07:02.406Z,1023.18
2019-04-30T06:08:02.639Z,1023.18
2019-04-30T06:09:14.462Z,1023.18
2019-04-30T06:10:02.131Z,1023.15
2019-04-30T06:11:02.373Z,1023.15
2019-04-30T06:12:02.593Z,1023.15
2019-04-30T06:13:01.816Z,1023.15
2019-04-30T06:14:02.042Z,1023.15
2019-04-30T06:15:02.314Z,1023.15
2019-04-30T06:16:02.533Z,1023.15
2019-04-30T06:17:01.844Z,1023.15
2019-04-30T06:18:14.047Z,1023.2
2019-04-30T06:19:02.244Z,1023.2
2019-04-30T06:20:02.546Z,1023.2
2019-04-30T06:21:01.855Z,1023.2
2019-04-30T06:22:10.990Z,1023.22
2019-04-30T06:23:02.281Z,1023.22
2019-04-30T06:24:02.452Z,1023.22
2019-04-30T06:25:02.119Z,1023.22
2019-04-30T06:26:13.208Z,1023.31
2019-04-30T06:27:02.257Z,1023.31
2019-04-30T06:28:02.516Z,1023.31
2019-04-30T06:29:01.768Z,1023.31
2019-04-30T06:30:02.040Z,1023.2
2019-04-30T06:31:01.809Z,1023.2
2019-04-30T06:32:02.045Z,1023.2
2019-04-30T06:33:02.280Z,1023.2
2019-04-30T06:34:02.506Z,1023.27
2019-04-30T06:35:01.744Z,1023.27
2019-04-30T06:36:01.919Z,1023.27
2019-04-30T06:37:02.088Z,1023.27
2019-04-30T06:38:02.400Z,1023.26
2019-04-30T06:39:02.602Z,1023.26
2019-04-30T06:40:01.771Z,1023.26
2019-04-30T06:41:01.952Z,1023.26
2019-04-30T06:42:12.594Z,1023.22
2019-04-30T06:43:02.453Z,1023.22
2019-04-30T06:44:02.663Z,1023.22
2019-04-30T06:45:01.990Z,1023.22
2019-04-30T06:46:02.083Z,1023.23
2019-04-30T06:47:02.095Z,1023.23
2019-04-30T06:48:02.272Z,1023.23
2019-04-30T06:49:02.443Z,1023.23
2019-04-30T06:50:01.768Z,1023.31
2019-04-30T06:51:01.922Z,1023.31
2019-04-30T06:52:02.061Z,1023.31
2019-04-30T06:53:02.299Z,1023.31
2019-04-30T06:54:02.468Z,1023.2
2019-04-30T06:55:01.666Z,1023.2
2019-04-30T06:56:01.968Z,1023.2
2019-04-30T06:57:02.114Z,1023.2
2019-04-30T06:58:15.657Z,1023.25
2019-04-30T06:59:02.552Z,1023.25
2019-04-30T07:00:04.178Z,1023.25
2019-04-30T07:01:02.112Z,1023.25
2019-04-30T07:02:02.281Z,1023.35
2019-04-30T07:03:02.471Z,1023.35
2019-04-30T07:04:01.686Z,1023.35
2019-04-30T07:05:02.298Z,1023.35
2019-04-30T07:06:02.291Z,1023.2
2019-04-30T07:07:02.471Z,1023.2
2019-04-30T07:08:12.091Z,1023.2
2019-04-30T07:09:02.232Z,1023.2
2019-04-30T07:10:02.523Z,1023.22
2019-04-30T07:11:11.430Z,1023.22
2019-04-30T07:12:01.920Z,1023.22
2019-04-30T07:13:01.914Z,1023.22
2019-04-30T07:14:02.118Z,1023.26
2019-04-30T07:15:02.378Z,1023.26
2019-04-30T07:16:02.607Z,1023.26
2019-04-30T07:17:01.976Z,1023.26
2019-04-30T07:18:02.095Z,1023.27
2019-04-30T07:19:02.306Z,1023.27
2019-04-30T07:20:02.622Z,1023.27
2019-04-30T07:21:01.867Z,1023.27
2019-04-30T07:22:02.115Z,1023.42
2019-04-30T07:23:03.782Z,1023.42
2019-04-30T07:24:02.519Z,1023.42
2019-04-30T07:25:01.665Z,1023.42
2019-04-30T07:26:01.878Z,1023.34
2019-04-30T07:27:03.209Z,1023.34
2019-04-30T07:28:02.374Z,1023.34
2019-04-30T07:29:03.035Z,1023.34
2019-04-30T07:30:01.870Z,1023.46
2019-04-30T07:31:14.878Z,1023.46
2019-04-30T07:32:02.140Z,1023.46
2019-04-30T07:33:02.392Z,1023.46
2019-04-30T07:34:02.664Z,1023.47
2019-04-30T07:35:01.920Z,1023.47
2019-04-30T07:36:02.111Z,1023.47
2019-04-30T07:37:24.225Z,1023.47
2019-04-30T07:38:05.357Z,1023.45
2019-04-30T07:39:01.817Z,1023.45
2019-04-30T07:40:02.068Z,1023.45
2019-04-30T07:41:02.294Z,1023.45
2019-04-30T07:42:02.527Z,1023.41
2019-04-30T07:43:01.766Z,1023.41
2019-04-30T07:44:02.065Z,1023.41
2019-04-30T07:45:01.945Z,1023.41
2019-04-30T07:46:02.567Z,1023.41
2019-04-30T07:47:02.452Z,1023.41
2019-04-30T07:48:02.095Z,1023.41
2019-04-30T07:49:02.333Z,1023.45
2019-04-30T07:50:02.613Z,1023.45
2019-04-30T07:51:01.778Z,1023.45
2019-04-30T07:52:03.710Z,1023.45
2019-04-30T07:53:07.826Z,1023.45
2019-04-30T07:54:02.597Z,1023.45
2019-04-30T07:55:01.700Z,1023.45
2019-04-30T07:56:02.585Z,1023.45
2019-04-30T07:57:02.091Z,1023.56
2019-04-30T07:58:02.330Z,1023.56
2019-04-30T07:59:03.331Z,1023.56
2019-04-30T08:00:03.481Z,1023.56
2019-04-30T08:01:02.357Z,1023.48
2019-04-30T08:02:14.658Z,1023.48
2019-04-30T08:03:01.796Z,1023.48
2019-04-30T08:04:02.061Z,1023.48
2019-04-30T08:05:02.324Z,1023.58
2019-04-30T08:06:02.832Z,1023.58
2019-04-30T08:07:02.672Z,1023.58
2019-04-30T08:08:25.090Z,1023.58
2019-04-30T08:09:02.522Z,1023.66
2019-04-30T08:10:02.111Z,1023.66
2019-04-30T08:11:02.377Z,1023.66
2019-04-30T08:12:03.011Z,1023.66
2019-04-30T08:13:15.767Z,1023.77
2019-04-30T08:14:02.883Z,1023.77
2019-04-30T08:15:02.491Z,1023.77
2019-04-30T08:16:02.210Z,1023.77
2019-04-30T08:17:02.451Z,1023.66
2019-04-30T08:18:06.173Z,1023.66
2019-04-30T08:19:01.810Z,1023.66
2019-04-30T08:20:02.243Z,1023.66
2019-04-30T08:21:02.067Z,1023.75
2019-04-30T08:22:02.371Z,1023.75
2019-04-30T08:23:31.510Z,1023.75
2019-04-30T08:24:01.721Z,1023.75
2019-04-30T08:25:01.966Z,1023.77
2019-04-30T08:26:02.233Z,1023.77
2019-04-30T08:27:02.469Z,1023.77
2019-04-30T08:28:02.628Z,1023.77
2019-04-30T08:29:01.762Z,1023.9
2019-04-30T08:30:02.148Z,1023.9
2019-04-30T08:31:02.270Z,1023.9
2019-04-30T08:32:02.570Z,1023.9
2019-04-30T08:33:01.818Z,1023.84
2019-04-30T08:34:01.963Z,1023.84
2019-04-30T08:35:02.288Z,1023.84
2019-04-30T08:36:02.490Z,1023.84
2019-04-30T08:37:19.980Z,1023.8
2019-04-30T08:38:01.967Z,1023.8
2019-04-30T08:39:02.160Z,1023.8
2019-04-30T08:40:03.895Z,1023.8
2019-04-30T08:41:02.552Z,1023.91
2019-04-30T08:42:01.820Z,1023.91
2019-04-30T08:43:02.070Z,1023.91
2019-04-30T08:44:02.247Z,1023.91
2019-04-30T08:45:02.554Z,1023.96
2019-04-30T08:46:01.863Z,1023.96
2019-04-30T08:47:02.036Z,1023.96
2019-04-30T08:48:02.329Z,1023.96
2019-04-30T08:49:02.718Z,1023.96
2019-04-30T08:50:03.641Z,1023.96
2019-04-30T08:51:01.916Z,1023.96
2019-04-30T08:52:02.191Z,1023.96
2019-04-30T08:53:02.479Z,1023.91
2019-04-30T08:54:02.559Z,1023.91
2019-04-30T08:55:19.167Z,1023.91
2019-04-30T08:56:01.983Z,1023.91
2019-04-30T08:57:02.177Z,1024.07
2019-04-30T08:58:15.325Z,1024.07
2019-04-30T08:59:01.639Z,1024.07
2019-04-30T09:00:06.228Z,1024.07
2019-04-30T09:01:02.016Z,1024.05
2019-04-30T09:02:16.698Z,1024.05
2019-04-30T09:03:02.511Z,1024.05
2019-04-30T09:04:01.698Z,1024.05
2019-04-30T09:05:01.929Z,1024.1
2019-04-30T09:06:02.176Z,1024.1
2019-04-30T09:07:02.347Z,1024.1
2019-04-30T09:08:02.624Z,1024.1
2019-04-30T09:09:02.347Z,1024.09
2019-04-30T09:10:05.157Z,1024.09
2019-04-30T09:11:01.863Z,1024.09
2019-04-30T09:12:02.034Z,1024.09
2019-04-30T09:13:02.284Z,1024.09
2019-04-30T09:14:02.554Z,1024.09
2019-04-30T09:15:01.739Z,1024.09
2019-04-30T09:16:01.943Z,1024.09
2019-04-30T09:17:02.175Z,1024.14
2019-04-30T09:18:12.368Z,1024.14
2019-04-30T09:19:02.622Z,1024.14
2019-04-30T09:20:01.944Z,1024.14
2019-04-30T09:21:08.440Z,1024.23
2019-04-30T09:22:02.337Z,1024.23
2019-04-30T09:23:02.585Z,1024.23
2019-04-30T09:24:01.868Z,1024.23
2019-04-30T09:25:02.023Z,1024.09
2019-04-30T09:26:02.297Z,1024.09
2019-04-30T09:27:02.475Z,1024.09
2019-04-30T09:28:04.741Z,1024.09
2019-04-30T09:29:01.994Z,1024.18
2019-04-30T09:30:02.294Z,1024.18
2019-04-30T09:31:02.478Z,1024.18
2019-04-30T09:32:01.666Z,1024.25
2019-04-30T09:33:01.956Z,1024.25
2019-04-30T09:34:18.635Z,1024.25
2019-04-30T09:35:02.357Z,1024.25
2019-04-30T09:36:02.584Z,1024.12
2019-04-30T09:37:01.878Z,1024.12
2019-04-30T09:38:02.429Z,1024.12
2019-04-30T09:39:02.620Z,1024.12
2019-04-30T09:40:01.906Z,1024.17
2019-04-30T09:41:02.015Z,1024.17
2019-04-30T09:42:02.021Z,1024.17
2019-04-30T09:43:02.319Z,1024.17
2019-04-30T09:44:02.516Z,1024.21
2019-04-30T09:45:01.828Z,1024.21
2019-04-30T09:46:01.996Z,1024.21
2019-04-30T09:47:02.188Z,1024.21
2019-04-30T09:48:02.484Z,1024.14
2019-04-30T09:49:01.637Z,1024.14
2019-04-30T09:50:01.969Z,1024.14
2019-04-30T09:51:03.107Z,1024.14
2019-04-30T09:52:02.546Z,1024.14
2019-04-30T09:53:03.265Z,1024.14
2019-04-30T09:54:04.883Z,1024.14
2019-04-30T09:55:03.073Z,1024.14
2019-04-30T09:56:02.283Z,1024.27
2019-04-30T09:57:02.432Z,1024.27
2019-04-30T09:58:20.382Z,1024.27
2019-04-30T09:59:01.974Z,1024.27
2019-04-30T10:00:04.210Z,1024.24
2019-04-30T10:01:02.042Z,1024.24
2019-04-30T10:02:02.130Z,1024.24
2019-04-30T10:03:03.186Z,1024.24
2019-04-30T10:04:03.656Z,1024.22
2019-04-30T10:05:03.093Z,1024.22
2019-04-30T10:06:02.065Z,1024.22
2019-04-30T10:07:02.351Z,1024.22
2019-04-30T10:08:02.636Z,1024.16
2019-04-30T10:09:01.890Z,1024.16
2019-04-30T10:10:02.101Z,1024.16
2019-04-30T10:11:02.365Z,1024.16
2019-04-30T10:12:02.609Z,1024.11
2019-04-30T10:13:01.841Z,1024.11
2019-04-30T10:14:01.810Z,1024.11
2019-04-30T10:15:02.085Z,1024.11
2019-04-30T10:16:02.278Z,1024.1
2019-04-30T10:17:02.540Z,1024.1
2019-04-30T10:18:01.749Z,1024.1
2019-04-30T10:19:02.019Z,1024.1
2019-04-30T10:20:02.269Z,1024.06
2019-04-30T10:21:02.496Z,1024.06
2019-04-30T10:22:01.675Z,1024.06
2019-04-30T10:23:01.824Z,1024.06
2019-04-30T10:24:15.961Z,1024.06
2019-04-30T10:25:02.112Z,1024.06
2019-04-30T10:26:02.395Z,1024.06
2019-04-30T10:27:02.608Z,1024.06
2019-04-30T10:28:01.950Z,1023.99
2019-04-30T10:29:02.064Z,1023.99
2019-04-30T10:30:02.420Z,1023.99
2019-04-30T10:31:02.558Z,1023.99
2019-04-30T10:32:02.459Z,1023.95
2019-04-30T10:33:01.779Z,1023.95
2019-04-30T10:34:01.923Z,1023.95
2019-04-30T10:35:01.659Z,1023.95
2019-04-30T10:36:01.896Z,1024.01
2019-04-30T10:37:03.352Z,1024.01
2019-04-30T10:38:02.425Z,1024.01
2019-04-30T10:39:02.656Z,1024.01
2019-04-30T10:40:01.929Z,1023.9
2019-04-30T10:41:02.190Z,1023.9
2019-04-30T10:42:02.372Z,1023.9
2019-04-30T10:43:02.666Z,1023.9
2019-04-30T10:44:02.562Z,1023.89
2019-04-30T10:45:01.836Z,1023.89
2019-04-30T10:46:01.915Z,1023.89
2019-04-30T10:47:02.104Z,1023.89
2019-04-30T10:48:02.275Z,1023.92
2019-04-30T10:49:02.390Z,1023.92
2019-04-30T10:50:02.580Z,1023.92
2019-04-30T10:51:01.802Z,1023.92
2019-04-30T10:52:02.061Z,1023.97
2019-04-30T10:53:02.254Z,1023.97
2019-04-30T10:54:02.516Z,1023.97
2019-04-30T10:55:04.879Z,1023.97
2019-04-30T10:56:01.827Z,1023.92
2019-04-30T10:57:02.110Z,1023.92
2019-04-30T10:58:02.356Z,1023.92
2019-04-30T10:59:02.521Z,1023.92
2019-04-30T11:00:10.117Z,1023.86
2019-04-30T11:01:02.433Z,1023.86
2019-04-30T11:02:02.117Z,1023.86
2019-04-30T11:03:02.367Z,1023.86
2019-04-30T11:04:02.486Z,1023.7
2019-04-30T11:05:01.826Z,1023.7
2019-04-30T11:06:01.939Z,1023.7
2019-04-30T11:07:02.123Z,1023.7
2019-04-30T11:08:02.444Z,1023.77
2019-04-30T11:09:02.549Z,1023.77
2019-04-30T11:10:01.902Z,1023.77
2019-04-30T11:11:02.322Z,1023.77
2019-04-30T11:12:03.517Z,1023.71
2019-04-30T11:13:02.076Z,1023.71
2019-04-30T11:14:02.063Z,1023.71
2019-04-30T11:15:02.283Z,1023.71
2019-04-30T11:16:15.730Z,1023.74
2019-04-30T11:17:02.539Z,1023.74
2019-04-30T11:18:02.422Z,1023.74
2019-04-30T11:19:02.704Z,1023.72
2019-04-30T11:20:02.931Z,1023.72
2019-04-30T11:21:02.268Z,1023.72
2019-04-30T11:22:02.354Z,1023.72
2019-04-30T11:23:15.188Z,1023.72
2019-04-30T11:24:02.368Z,1023.72
2019-04-30T11:25:03.413Z,1023.72
2019-04-30T11:26:03.933Z,1023.72
2019-04-30T11:27:03.553Z,1023.69
2019-04-30T11:28:03.939Z,1023.69
2019-04-30T11:29:02.369Z,1023.69
2019-04-30T11:30:05.966Z,1023.69
2019-04-30T11:31:02.826Z,1023.67
2019-04-30T11:32:02.848Z,1023.67
2019-04-30T11:33:02.391Z,1023.67
2019-04-30T11:34:01.952Z,1023.67
2019-04-30T11:35:03.370Z,1023.61
2019-04-30T11:36:05.122Z,1023.61
2019-04-30T11:37:02.299Z,1023.61
2019-04-30T11:38:02.516Z,1023.61
2019-04-30T11:39:01.718Z,1023.57
2019-04-30T11:40:01.941Z,1023.57
2019-04-30T11:41:02.203Z,1023.57
2019-04-30T11:42:02.133Z,1023.57
2019-04-30T11:43:02.322Z,1023.65
2019-04-30T11:44:02.602Z,1023.65
2019-04-30T11:45:01.904Z,1023.65
2019-04-30T11:46:02.176Z,1023.65
2019-04-30T11:47:02.296Z,1023.63
2019-04-30T11:48:02.504Z,1023.63
2019-04-30T11:49:02.541Z,1023.63
2019-04-30T11:50:01.875Z,1023.63
2019-04-30T11:51:01.979Z,1023.63
2019-04-30T11:52:01.841Z,1023.63
2019-04-30T11:53:28.044Z,1023.63
2019-04-30T11:54:02.114Z,1023.63
2019-04-30T11:55:02.413Z,1023.62
2019-04-30T11:56:02.557Z,1023.62
2019-04-30T11:57:01.848Z,1023.62
2019-04-30T11:58:02.114Z,1023.62
2019-04-30T11:59:02.286Z,1023.55
2019-04-30T12:00:04.455Z,1023.55
2019-04-30T12:01:01.830Z,1023.55
2019-04-30T12:02:02.038Z,1023.55
2019-04-30T12:03:02.364Z,1023.49
2019-04-30T12:04:02.587Z,1023.49
2019-04-30T12:05:01.795Z,1023.49
2019-04-30T12:06:01.995Z,1023.49
2019-04-30T12:07:02.203Z,1023.5
2019-04-30T12:08:02.560Z,1023.5